Time;durP1;ratioP1;P1;durP2;ratioP2;P2;SDS_P1;SDS_P2;PMS_P1;PMS_P2;Temp;Humidity;BMP_temperature;BMP_pressure;BME280_temperature;BME280_humidity;BME280_pressure;Samples;Min_cycle;Max_cycle;Signal;HPM_P1;HPM_P2
2022/10/11 00:01:06;;;;;;;19.23;2.40;;;13.60;56.70;;;;;;5001782;28;20393;-48
2022/10/11 00:03:33;;;;;;;13.85;2.38;;;13.60;56.90;;;;;;5005136;28;20058;-47
2022/10/11 00:06:02;;;;;;;18.50;2.15;;;13.60;57.10;;;;;;5004443;28;20524;-51
2022/10/11 00:08:29;;;;;;;20.42;2.95;;;13.50;57.20;;;;;;5005496;28;20050;-48
2022/10/11 00:10:57;;;;;;;25.80;2.88;;;13.50;57.40;;;;;;5003652;28;20490;-46
2022/10/11 00:13:26;;;;;;;19.23;2.72;;;13.50;57.50;;;;;;5004983;28;20071;-46
2022/10/11 00:15:53;;;;;;;9.40;2.13;;;13.40;57.60;;;;;;5000650;28;20084;-44
2022/10/11 00:18:21;;;;;;;12.00;2.15;;;13.40;57.60;;;;;;5003677;28;20518;-49
2022/10/11 00:20:48;;;;;;;16.73;2.50;;;13.30;57.60;;;;;;5001724;28;20045;-46
2022/10/11 00:23:16;;;;;;;15.18;3.08;;;13.40;57.70;;;;;;5004214;28;20540;-49
2022/10/11 00:25:43;;;;;;;18.02;3.28;;;13.40;57.70;;;;;;5003089;28;20042;-50
2022/10/11 00:28:10;;;;;;;14.95;2.08;;;13.30;57.70;;;;;;5004977;28;20386;-47
2022/10/11 00:30:42;;;;;;;12.18;2.13;;;13.40;57.80;;;;;;5000396;28;20053;-50
2022/10/11 00:33:09;;;;;;;10.57;2.10;;;13.40;57.80;;;;;;5005119;28;20053;-48
2022/10/11 00:35:40;;;;;;;14.45;2.05;;;13.40;57.70;;;;;;5000569;28;20061;-49
2022/10/11 00:38:07;;;;;;;9.60;2.30;;;13.30;57.70;;;;;;5005526;28;20060;-46
2022/10/11 00:40:34;;;;;;;13.63;2.53;;;13.40;57.70;;;;;;5001839;28;20482;-49
2022/10/11 00:43:02;;;;;;;9.90;2.15;;;13.40;57.60;;;;;;5003213;28;20049;-48
2022/10/11 00:46:02;;;;;;;12.50;2.17;;;13.40;57.60;;;;;;5002591;28;20061;-49
2022/10/11 00:48:36;;;;;;;18.23;2.53;;;13.40;57.70;;;;;;4972542;28;20065;-50
2022/10/11 00:51:07;;;;;;;14.67;2.60;;;13.40;57.60;;;;;;5001699;28;20058;-48
2022/10/11 00:53:34;;;;;;;16.80;3.78;;;13.40;57.70;;;;;;5004132;28;20054;-48
2022/10/11 00:56:07;;;;;;;17.40;2.53;;;13.40;57.70;;;;;;5005955;28;20050;-48
2022/10/11 00:58:36;;;;;;;17.05;2.50;;;13.30;57.80;;;;;;5009318;28;20054;-47
2022/10/11 01:01:05;;;;;;;16.85;2.45;;;13.30;57.80;;;;;;5004707;28;20052;-41
2022/10/11 01:03:34;;;;;;;13.20;2.30;;;13.30;57.90;;;;;;5007175;28;20050;-40
2022/10/11 01:06:03;;;;;;;19.85;2.50;;;13.20;58.00;;;;;;5005945;28;20065;-45
2022/10/11 01:08:31;;;;;;;12.50;2.40;;;13.20;58.10;;;;;;5007218;28;20497;-41
2022/10/11 01:10:58;;;;;;;11.15;2.17;;;13.10;58.20;;;;;;5003333;28;20505;-40
2022/10/11 01:13:37;;;;;;;14.95;2.60;;;13.10;58.30;;;;;;5005516;28;20398;-40
2022/10/11 01:16:13;;;;;;;14.80;2.47;;;13.10;58.60;;;;;;5003729;28;20045;-44
2022/10/11 01:18:48;;;;;;;15.60;2.35;;;13.00;58.50;;;;;;5007490;28;20062;-42
2022/10/11 01:21:29;;;;;;;8.02;1.90;;;13.00;58.50;;;;;;5002522;28;20049;-40
2022/10/11 01:24:14;;;;;;;14.80;2.08;;;13.00;58.60;;;;;;5004897;28;20060;-41
2022/10/11 01:27:08;;;;;;;12.65;2.17;;;13.00;58.50;;;;;;5005325;28;20426;-46
2022/10/11 01:29:46;;;;;;;7.10;1.65;;;13.10;58.40;;;;;;5004582;28;20406;-42
2022/10/11 01:32:17;;;;;;;10.82;2.13;;;13.10;58.30;;;;;;5000109;28;20050;-41
2022/10/11 01:34:54;;;;;;;8.18;1.75;;;13.10;58.00;;;;;;5003374;28;20061;-39
2022/10/11 01:37:27;;;;;;;10.95;1.75;;;13.10;57.80;;;;;;5001077;28;21681;-42
2022/10/11 01:40:00;;;;;;;14.05;2.53;;;13.10;57.60;;;;;;5003918;28;20053;-45
2022/10/11 01:42:29;;;;;;;11.15;1.67;;;13.10;57.60;;;;;;5003231;28;20058;-40
2022/10/11 01:44:58;;;;;;;11.30;2.10;;;13.10;57.40;;;;;;5003382;28;20057;-41
2022/10/11 01:47:27;;;;;;;8.60;2.17;;;13.20;57.30;;;;;;5003867;28;20058;-43
2022/10/11 01:49:56;;;;;;;7.25;1.92;;;13.10;57.20;;;;;;5003559;28;20053;-39
2022/10/11 01:52:25;;;;;;;15.93;2.83;;;13.10;57.10;;;;;;5003866;28;20054;-41
2022/10/11 01:55:11;;;;;;;14.30;2.40;;;13.10;57.20;;;;;;5003725;28;20065;-44
2022/10/11 01:57:48;;;;;;;9.07;2.53;;;13.10;57.50;;;;;;5005582;28;20382;-40
2022/10/11 02:00:18;;;;;;;16.90;2.75;;;13.10;57.50;;;;;;5002033;28;20409;-43
2022/10/11 02:02:55;;;;;;;12.05;2.42;;;13.00;57.40;;;;;;5005653;28;20056;-44
2022/10/11 02:05:29;;;;;;;12.30;2.05;;;13.00;57.50;;;;;;5005884;28;20058;-40
2022/10/11 02:08:05;;;;;;;7.60;1.98;;;13.00;57.50;;;;;;5006789;28;20057;-40
2022/10/11 02:10:36;;;;;;;9.73;1.63;;;13.00;57.40;;;;;;5002175;28;20081;-40
2022/10/11 02:13:09;;;;;;;12.07;2.00;;;13.00;57.40;;;;;;5004247;28;20046;-41
2022/10/11 02:15:40;;;;;;;11.55;2.40;;;13.00;57.40;;;;;;5000651;28;20053;-42
2022/10/11 02:18:11;;;;;;;10.32;2.40;;;13.00;57.40;;;;;;5004546;28;20486;-43
2022/10/11 02:20:41;;;;;;;10.05;2.40;;;13.00;57.40;;;;;;5003334;28;20057;-40
2022/10/11 02:23:13;;;;;;;9.50;2.03;;;13.00;57.30;;;;;;5006234;28;20062;-40
2022/10/11 02:25:42;;;;;;;8.55;2.33;;;13.00;57.30;;;;;;5004786;28;20057;-40
2022/10/11 02:28:14;;;;;;;8.75;2.13;;;13.00;57.20;;;;;;5004529;28;20062;-47
2022/10/11 02:30:42;;;;;;;10.90;2.15;;;13.00;57.20;;;;;;5002128;28;20054;-41
2022/10/11 02:33:14;;;;;;;11.10;2.70;;;13.00;57.20;;;;;;5004858;28;20419;-43
2022/10/11 02:35:45;;;;;;;12.27;2.25;;;12.90;57.10;;;;;;5004291;28;20057;-42
2022/10/11 02:38:19;;;;;;;11.70;2.38;;;12.90;57.20;;;;;;5005637;28;20065;-40
2022/10/11 02:40:50;;;;;;;15.93;2.97;;;12.90;57.10;;;;;;5000824;28;20053;-46
2022/10/11 02:43:22;;;;;;;10.55;1.95;;;12.90;57.10;;;;;;5002661;28;20054;-43
2022/10/11 02:45:53;;;;;;;11.25;2.50;;;12.90;57.10;;;;;;5001193;28;20088;-44
2022/10/11 02:48:23;;;;;;;9.02;2.40;;;12.90;57.20;;;;;;5005747;28;20057;-41
2022/10/11 02:50:53;;;;;;;10.32;2.70;;;12.90;57.10;;;;;;5003176;28;20050;-40
2022/10/11 02:53:21;;;;;;;11.20;3.03;;;12.90;57.20;;;;;;5004241;28;20062;-44
2022/10/11 02:55:51;;;;;;;9.70;2.67;;;12.80;57.20;;;;;;5003380;28;20292;-42
2022/10/11 02:58:18;;;;;;;6.07;2.17;;;12.90;57.30;;;;;;5004138;28;20050;-41
2022/10/11 03:00:45;;;;;;;11.63;2.63;;;12.80;57.30;;;;;;4999924;28;20058;-40
2022/10/11 03:03:12;;;;;;;9.95;2.50;;;12.90;57.40;;;;;;5002944;28;20054;-39
2022/10/11 03:05:42;;;;;;;9.10;2.80;;;12.80;57.40;;;;;;5004290;28;20486;-42
2022/10/11 03:08:12;;;;;;;9.13;2.65;;;12.90;57.40;;;;;;5003811;28;20054;-41
2022/10/11 03:10:40;;;;;;;11.18;2.47;;;12.90;57.40;;;;;;5001288;28;20049;-40
2022/10/11 03:13:08;;;;;;;10.20;2.40;;;12.80;57.30;;;;;;4998526;28;20061;-42
2022/10/11 03:15:35;;;;;;;5.43;2.08;;;12.80;57.20;;;;;;4999633;28;20053;-40
2022/10/11 03:18:02;;;;;;;9.40;2.20;;;12.80;57.20;;;;;;5004905;28;20050;-44
2022/10/11 03:20:30;;;;;;;8.95;2.55;;;12.80;57.10;;;;;;5001846;28;20119;-41
2022/10/11 03:22:58;;;;;;;9.85;2.75;;;12.80;57.10;;;;;;5004167;28;20058;-42
2022/10/11 03:25:25;;;;;;;9.75;2.28;;;12.80;57.10;;;;;;5003794;28;20077;-41
2022/10/11 03:27:53;;;;;;;6.47;2.15;;;12.80;57.10;;;;;;5003742;28;20401;-39
2022/10/11 03:30:20;;;;;;;6.15;2.33;;;12.80;57.20;;;;;;5000846;28;20057;-42
2022/10/11 03:32:47;;;;;;;6.82;2.40;;;12.80;57.20;;;;;;5000957;28;20064;-41
2022/10/11 03:35:15;;;;;;;8.38;2.25;;;12.80;57.30;;;;;;5002650;28;20061;-41
2022/10/11 03:37:42;;;;;;;8.55;2.38;;;12.80;57.20;;;;;;5002225;28;20425;-43
2022/10/11 03:40:12;;;;;;;7.78;2.42;;;12.80;57.20;;;;;;5001694;28;20042;-40
2022/10/11 03:42:39;;;;;;;7.55;2.80;;;12.80;57.20;;;;;;5003908;28;20057;-42
2022/10/11 03:45:08;;;;;;;8.40;2.17;;;12.80;57.20;;;;;;5002182;28;20535;-45
2022/10/11 03:47:36;;;;;;;9.18;2.72;;;12.80;57.20;;;;;;5003954;28;20062;-45
2022/10/11 03:50:04;;;;;;;6.50;2.28;;;12.80;57.30;;;;;;5001979;28;20050;-41
2022/10/11 03:52:32;;;;;;;12.20;2.72;;;12.80;57.30;;;;;;5002639;28;20057;-42
2022/10/11 03:54:59;;;;;;;11.30;4.40;;;12.80;57.40;;;;;;5000545;28;20060;-44
2022/10/11 03:57:28;;;;;;;13.98;4.15;;;12.80;57.60;;;;;;5003885;28;20081;-43
2022/10/11 03:59:55;;;;;;;11.18;3.60;;;12.80;57.90;;;;;;5003656;28;20054;-42
2022/10/11 04:02:22;;;;;;;9.18;3.25;;;12.80;58.00;;;;;;4997699;28;20532;-42
2022/10/11 04:04:49;;;;;;;9.63;3.65;;;12.80;58.10;;;;;;4999837;28;20065;-40
2022/10/11 04:07:16;;;;;;;7.75;2.97;;;12.80;58.10;;;;;;5004275;28;20078;-40
2022/10/11 04:09:44;;;;;;;10.75;3.17;;;12.80;58.10;;;;;;4997340;28;20064;-40
2022/10/11 04:12:11;;;;;;;8.60;3.10;;;12.80;58.10;;;;;;4996144;28;20064;-40
2022/10/11 04:14:40;;;;;;;11.23;4.25;;;12.80;58.20;;;;;;4999792;28;20061;-39
2022/10/11 04:17:07;;;;;;;16.05;4.93;;;12.90;58.30;;;;;;4996133;28;20046;-41
2022/10/11 04:19:36;;;;;;;13.30;5.03;;;12.90;58.30;;;;;;4998431;28;20485;-43
2022/10/11 04:22:03;;;;;;;19.80;7.68;;;12.90;58.40;;;;;;4998437;28;20998;-40
2022/10/11 04:24:30;;;;;;;15.55;6.95;;;12.90;58.60;;;;;;4999189;28;20501;-40
2022/10/11 04:26:58;;;;;;;31.55;11.60;;;12.90;58.90;;;;;;4993205;28;20053;-40
2022/10/11 04:29:26;;;;;;;55.42;18.77;;;12.90;59.00;;;;;;5002811;28;20421;-46
2022/10/11 04:31:54;;;;;;;39.03;14.50;;;13.00;59.50;;;;;;5001371;28;20501;-43
2022/10/11 04:34:22;;;;;;;35.72;13.00;;;12.90;59.70;;;;;;5002589;28;20065;-41
2022/10/11 04:36:49;;;;;;;40.65;11.48;;;13.00;59.80;;;;;;5001840;28;20057;-43
2022/10/11 04:39:16;;;;;;;38.70;12.88;;;13.00;59.80;;;;;;4999343;28;20054;-42
2022/10/11 04:41:43;;;;;;;32.95;12.63;;;12.90;59.80;;;;;;5003958;28;20065;-41
2022/10/11 04:44:11;;;;;;;47.42;13.35;;;13.00;60.00;;;;;;5003304;28;20358;-42
2022/10/11 04:46:38;;;;;;;36.70;15.07;;;12.90;60.00;;;;;;5000072;28;20054;-39
2022/10/11 04:49:06;;;;;;;45.60;16.27;;;12.90;60.10;;;;;;5001117;28;20057;-44
2022/10/11 04:51:34;;;;;;;42.15;15.57;;;12.90;60.20;;;;;;5001778;28;20367;-40
2022/10/11 04:54:01;;;;;;;41.88;17.55;;;12.90;60.20;;;;;;5003753;28;20505;-41
2022/10/11 04:56:29;;;;;;;44.35;16.80;;;12.90;60.30;;;;;;5003454;28;20375;-40
2022/10/11 04:58:56;;;;;;;38.58;15.35;;;12.80;60.40;;;;;;5002429;28;20053;-42
2022/10/11 05:01:24;;;;;;;57.53;19.83;;;12.80;60.40;;;;;;5001322;28;20057;-40
2022/10/11 05:03:51;;;;;;;37.60;16.17;;;12.80;60.70;;;;;;5002918;28;20058;-40
2022/10/11 05:06:19;;;;;;;43.03;18.33;;;12.80;60.80;;;;;;5003092;28;20058;-44
2022/10/11 05:08:47;;;;;;;59.15;22.23;;;12.80;60.90;;;;;;5003290;28;20054;-40
2022/10/11 05:11:15;;;;;;;65.93;25.58;;;12.80;61.00;;;;;;4999868;28;20061;-44
2022/10/11 05:13:44;;;;;;;64.53;23.98;;;12.90;61.30;;;;;;5002261;28;20081;-41
2022/10/11 05:16:12;;;;;;;61.28;22.85;;;12.90;61.30;;;;;;5000664;28;20060;-40
2022/10/11 05:18:39;;;;;;;60.58;23.55;;;12.80;61.20;;;;;;5000852;28;20054;-42
2022/10/11 05:21:08;;;;;;;65.93;22.08;;;12.90;61.30;;;;;;5003912;28;20049;-40
2022/10/11 05:23:37;;;;;;;55.00;24.33;;;12.90;61.30;;;;;;5002922;28;20050;-43
2022/10/11 05:26:05;;;;;;;44.72;20.75;;;12.90;61.40;;;;;;4998644;28;20042;-41
2022/10/11 05:28:33;;;;;;;69.40;27.27;;;12.90;61.30;;;;;;5003584;28;20065;-41
2022/10/11 05:31:00;;;;;;;48.85;21.17;;;12.90;61.30;;;;;;5001537;28;20057;-44
2022/10/11 05:33:28;;;;;;;57.15;24.15;;;12.90;61.20;;;;;;5002976;28;20054;-42
2022/10/11 05:35:55;;;;;;;50.25;22.13;;;12.90;61.30;;;;;;5002979;28;20549;-41
2022/10/11 05:38:23;;;;;;;45.83;21.15;;;12.90;61.20;;;;;;5003372;28;20060;-39
2022/10/11 05:40:51;;;;;;;46.78;21.20;;;13.00;61.30;;;;;;5001818;28;20061;-41
2022/10/11 05:43:19;;;;;;;44.38;20.35;;;13.00;61.20;;;;;;5005391;28;20061;-39
2022/10/11 05:45:46;;;;;;;66.10;23.92;;;13.00;61.20;;;;;;5004287;28;20065;-40
2022/10/11 05:48:13;;;;;;;59.05;24.75;;;13.10;61.20;;;;;;5006403;28;20061;-43
2022/10/11 05:50:41;;;;;;;46.10;20.35;;;13.10;61.10;;;;;;5004414;28;20510;-42
2022/10/11 05:53:08;;;;;;;64.00;21.75;;;13.10;61.00;;;;;;5005214;28;20062;-44
2022/10/11 05:55:36;;;;;;;53.08;19.40;;;13.10;61.00;;;;;;5003150;28;20641;-42
2022/10/11 05:58:06;;;;;;;37.13;17.08;;;13.10;60.80;;;;;;5005731;28;20050;-42
2022/10/11 06:00:36;;;;;;;58.70;24.38;;;13.10;60.80;;;;;;5003377;28;20054;-43
2022/10/11 06:03:05;;;;;;;64.88;25.27;;;13.10;60.90;;;;;;5004701;28;20058;-40
2022/10/11 06:05:34;;;;;;;41.67;19.60;;;13.10;60.90;;;;;;5005517;28;20062;-43
2022/10/11 06:08:02;;;;;;;38.63;16.60;;;13.10;61.00;;;;;;5006976;28;20410;-45
2022/10/11 06:10:29;;;;;;;40.83;18.50;;;13.10;61.00;;;;;;5006203;28;20056;-44
2022/10/11 06:12:56;;;;;;;38.70;16.40;;;13.10;60.90;;;;;;5005471;28;20065;-41
2022/10/11 06:15:25;;;;;;;35.83;16.00;;;13.20;60.90;;;;;;5001519;28;20065;-42
2022/10/11 06:17:53;;;;;;;40.05;17.77;;;13.20;60.90;;;;;;5000627;28;20042;-40
2022/10/11 06:20:20;;;;;;;47.65;19.65;;;13.20;60.80;;;;;;5005066;28;20054;-42
2022/10/11 06:22:48;;;;;;;50.15;19.70;;;13.30;60.80;;;;;;5006504;28;20509;-43
2022/10/11 06:25:16;;;;;;;45.53;18.35;;;13.30;60.70;;;;;;5005566;28;20405;-39
2022/10/11 06:27:43;;;;;;;41.17;18.08;;;13.30;60.50;;;;;;5004832;28;20050;-40
2022/10/11 06:30:12;;;;;;;51.50;19.85;;;13.30;60.40;;;;;;5003785;28;20065;-41
2022/10/11 06:32:41;;;;;;;45.55;20.50;;;13.30;60.30;;;;;;5004960;28;20046;-41
2022/10/11 06:35:09;;;;;;;50.63;21.50;;;13.40;60.30;;;;;;5004702;28;20064;-40
2022/10/11 06:37:37;;;;;;;46.50;21.13;;;13.40;60.20;;;;;;5005556;28;20053;-43
2022/10/11 06:40:05;;;;;;;49.88;20.52;;;13.40;60.10;;;;;;5004653;28;20065;-41
2022/10/11 06:42:32;;;;;;;46.30;18.30;;;13.40;60.10;;;;;;5003957;28;20429;-44
2022/10/11 06:45:00;;;;;;;42.35;18.83;;;13.40;60.00;;;;;;5004705;28;20061;-40
2022/10/11 06:47:27;;;;;;;44.72;19.33;;;13.40;60.00;;;;;;5003784;28;20049;-42
2022/10/11 06:49:56;;;;;;;37.80;17.92;;;13.40;59.90;;;;;;5005856;28;20155;-43
2022/10/11 06:52:24;;;;;;;38.75;16.73;;;13.50;60.00;;;;;;5005636;28;20133;-41
2022/10/11 06:54:52;;;;;;;38.35;18.23;;;13.50;59.90;;;;;;5003359;28;20057;-42
2022/10/11 06:57:19;;;;;;;44.42;18.20;;;13.50;59.90;;;;;;5003397;28;20375;-48
2022/10/11 06:59:47;;;;;;;45.63;19.70;;;13.50;59.90;;;;;;5002676;28;20506;-44
2022/10/11 07:02:15;;;;;;;46.40;19.98;;;13.50;59.80;;;;;;5004530;28;20057;-44
2022/10/11 07:04:42;;;;;;;41.67;18.92;;;13.50;60.40;;;;;;5005101;28;20066;-40
2022/10/11 07:07:32;;;;;;;46.80;19.73;;;13.50;59.80;;;;;;5003502;28;20056;-41
2022/10/11 07:10:01;;;;;;;50.70;21.83;;;13.60;59.80;;;;;;5005222;28;20064;-41
2022/10/11 07:12:28;;;;;;;61.75;23.33;;;13.60;59.80;;;;;;4978148;28;20050;-41
2022/10/11 07:14:56;;;;;;;52.67;23.10;;;13.60;59.70;;;;;;5000704;28;20058;-42
2022/10/11 07:17:23;;;;;;;46.17;22.08;;;13.60;59.70;;;;;;4999385;28;20402;-41
2022/10/11 07:19:50;;;;;;;58.53;22.33;;;13.60;59.70;;;;;;5003958;28;20061;-40
2022/10/11 07:22:17;;;;;;;59.05;24.08;;;13.60;59.70;;;;;;5003787;28;20062;-41
2022/10/11 07:24:47;;;;;;;41.83;19.17;;;13.60;59.70;;;;;;5002660;28;20077;-41
2022/10/11 07:27:15;;;;;;;65.80;23.63;;;13.60;59.60;;;;;;5002298;28;20053;-44
2022/10/11 07:29:42;;;;;;;80.38;29.02;;;13.60;59.40;;;;;;5003580;28;20091;-43
2022/10/11 07:32:09;;;;;;;64.00;24.08;;;13.50;59.30;;;;;;4997649;28;20046;-45
2022/10/11 07:34:36;;;;;;;67.30;24.48;;;13.50;59.40;;;;;;5003245;28;20054;-42
2022/10/11 07:37:03;;;;;;;68.68;24.23;;;13.50;59.60;;;;;;5005145;28;20049;-40
2022/10/11 07:39:30;;;;;;;60.08;22.77;;;13.40;59.70;;;;;;5003508;28;20449;-42
2022/10/11 07:41:59;;;;;;;47.65;21.00;;;13.30;59.90;;;;;;5002252;28;20524;-39
2022/10/11 07:44:27;;;;;;;77.20;27.27;;;13.30;60.80;;;;;;4999572;28;20398;-42
2022/10/11 07:46:54;;;;;;;60.15;25.70;;;13.20;60.10;;;;;;5000408;28;20057;-43
2022/10/11 07:49:21;;;;;;;57.92;24.83;;;13.20;60.10;;;;;;5002640;28;20062;-43
2022/10/11 07:51:48;;;;;;;56.05;23.45;;;13.20;60.10;;;;;;5000234;28;20061;-42
2022/10/11 07:54:15;;;;;;;54.67;22.30;;;13.20;60.30;;;;;;5004679;28;20429;-40
2022/10/11 07:56:42;;;;;;;48.20;20.45;;;13.20;60.40;;;;;;5000798;28;20485;-43
2022/10/11 07:59:11;;;;;;;41.35;19.25;;;13.20;60.60;;;;;;4999209;28;20050;-41
2022/10/11 08:01:38;;;;;;;50.80;21.60;;;13.30;60.70;;;;;;4997274;28;20050;-43
2022/10/11 08:04:05;;;;;;;44.75;22.00;;;13.30;60.70;;;;;;4998293;28;20387;-42
2022/10/11 08:06:32;;;;;;;52.80;20.42;;;13.30;60.60;;;;;;4998102;28;20046;-45
2022/10/11 08:09:01;;;;;;;54.42;22.65;;;13.40;60.50;;;;;;4997748;28;20053;-41
2022/10/11 08:11:30;;;;;;;37.53;19.27;;;13.40;60.20;;;;;;4995225;28;20050;-43
2022/10/11 08:13:58;;;;;;;44.60;18.95;;;13.40;60.10;;;;;;5002326;28;20049;-41
2022/10/11 08:16:27;;;;;;;68.50;25.40;;;13.40;60.20;;;;;;4999675;28;20057;-45
2022/10/11 08:18:55;;;;;;;63.08;25.73;;;13.50;60.30;;;;;;5001843;28;20049;-46
2022/10/11 08:21:23;;;;;;;50.88;20.02;;;13.50;60.30;;;;;;5001411;28;20061;-39
2022/10/11 08:23:50;;;;;;;42.03;18.90;;;13.50;60.20;;;;;;5002845;28;20065;-40
2022/10/11 08:26:17;;;;;;;41.67;19.25;;;13.60;60.10;;;;;;5003893;28;20061;-40
2022/10/11 08:28:45;;;;;;;50.85;22.45;;;13.60;60.00;;;;;;4993870;28;20049;-42
2022/10/11 08:31:14;;;;;;;51.28;22.40;;;13.60;59.90;;;;;;4985997;28;20049;-45
2022/10/11 08:33:43;;;;;;;46.47;21.42;;;13.70;59.90;;;;;;4984563;28;20053;-40
2022/10/11 08:36:10;;;;;;;56.35;22.83;;;13.70;59.90;;;;;;4987395;28;20053;-41
2022/10/11 08:38:39;;;;;;;48.38;22.55;;;13.80;60.00;;;;;;4983484;28;20417;-43
2022/10/11 08:41:23;;;;;;;52.05;22.92;;;13.80;59.90;;;;;;4981339;28;20061;-44
2022/10/11 08:43:59;;;;;;;60.55;25.02;;;13.80;59.90;;;;;;4980845;28;20092;-43
2022/10/11 08:46:31;;;;;;;46.85;22.23;;;13.90;59.80;;;;;;4980486;28;20058;-44
2022/10/11 08:49:01;;;;;;;49.38;23.05;;;13.90;59.70;;;;;;4985692;28;20054;-43
2022/10/11 08:51:33;;;;;;;44.08;20.27;;;14.00;59.70;;;;;;4985498;28;20061;-42
2022/10/11 08:54:04;;;;;;;44.72;19.48;;;14.00;59.70;;;;;;4985860;28;20077;-40
2022/10/11 08:56:35;;;;;;;42.40;17.55;;;14.10;59.70;;;;;;4988794;28;20061;-46
2022/10/11 08:59:05;;;;;;;38.22;16.23;;;14.10;59.60;;;;;;4980802;28;20050;-42
2022/10/11 09:01:32;;;;;;;45.20;16.67;;;14.10;59.60;;;;;;4996320;28;20141;-43
2022/10/11 09:04:02;;;;;;;40.83;16.98;;;14.20;59.30;;;;;;4994042;28;20397;-45
2022/10/11 09:06:42;;;;;;;49.78;17.17;;;14.20;59.00;;;;;;4988407;28;20065;-40
2022/10/11 09:09:42;;;;;;;41.38;16.95;;;14.20;58.80;;;;;;4989991;28;20061;-45
2022/10/11 09:12:18;;;;;;;39.70;16.50;;;14.20;58.80;;;;;;4985482;28;20058;-42
2022/10/11 09:15:25;;;;;;;41.28;16.90;;;14.20;58.70;;;;;;4993199;28;20524;-42
2022/10/11 09:18:17;;;;;;;37.75;15.80;;;14.30;58.80;;;;;;4956340;28;20062;-42
2022/10/11 09:20:55;;;;;;;29.77;13.13;;;14.30;58.80;;;;;;4999982;28;20053;-41
2022/10/11 09:24:03;;;;;;;28.65;12.82;;;14.40;58.80;;;;;;5003517;28;20057;-42
2022/10/11 09:26:39;;;;;;;32.97;12.32;;;14.40;58.80;;;;;;5001326;28;20490;-41
2022/10/11 09:29:16;;;;;;;29.38;13.52;;;14.50;58.70;;;;;;5004565;28;20065;-48
2022/10/11 09:31:47;;;;;;;30.02;11.95;;;14.50;58.60;;;;;;5000848;28;20057;-41
2022/10/11 09:34:15;;;;;;;35.70;14.38;;;14.50;58.60;;;;;;5001031;28;20585;-45
2022/10/11 09:36:53;;;;;;;45.28;15.52;;;14.60;58.00;;;;;;5001445;28;20072;-40
2022/10/11 09:39:28;;;;;;;46.47;16.52;;;14.60;57.50;;;;;;5002322;28;20046;-41
2022/10/11 09:42:00;;;;;;;36.15;15.52;;;14.50;57.40;;;;;;5003157;28;20062;-44
2022/10/11 09:44:29;;;;;;;33.58;15.27;;;14.50;57.70;;;;;;5004593;28;20084;-41
2022/10/11 09:46:57;;;;;;;30.25;13.57;;;14.50;58.00;;;;;;5002562;28;20045;-40
2022/10/11 09:49:29;;;;;;;33.83;14.63;;;14.60;58.20;;;;;;5002579;28;20042;-42
2022/10/11 09:52:00;;;;;;;30.58;13.95;;;14.60;58.20;;;;;;5003759;28;20065;-44
2022/10/11 09:54:38;;;;;;;32.42;13.40;;;14.60;58.30;;;;;;5005022;28;20069;-40
2022/10/11 09:57:06;;;;;;;26.23;12.50;;;14.60;58.20;;;;;;5003240;28;20053;-47
2022/10/11 09:59:35;;;;;;;26.58;11.30;;;14.70;58.30;;;;;;5004564;28;20505;-43
2022/10/11 10:02:19;;;;;;;27.35;9.63;;;14.70;58.20;;;;;;5003370;28;20057;-41
2022/10/11 10:05:00;;;;;;;31.30;10.90;;;14.80;57.90;;;;;;5004223;28;20061;-41
2022/10/11 10:07:30;;;;;;;23.75;10.18;;;14.90;57.90;;;;;;5004915;28;20053;-44
2022/10/11 10:09:58;;;;;;;21.83;10.75;;;14.90;57.80;;;;;;5002610;28;20080;-44
2022/10/11 10:12:28;;;;;;;26.98;9.13;;;15.00;57.80;;;;;;5003583;28;20064;-41
2022/10/11 10:15:03;;;;;;;31.33;12.48;;;15.00;57.70;;;;;;5002031;28;20058;-44
2022/10/11 10:17:30;;;;;;;38.45;14.30;;;15.10;57.50;;;;;;5000295;28;20493;-45
2022/10/11 10:19:59;;;;;;;49.80;17.73;;;15.20;56.80;;;;;;5002860;28;20065;-42
2022/10/11 10:22:32;;;;;;;40.65;16.17;;;15.20;57.40;;;;;;5004901;28;20058;-44
2022/10/11 10:25:04;;;;;;;37.90;15.80;;;15.10;58.00;;;;;;5003614;28;20057;-41
2022/10/11 10:27:32;;;;;;;40.97;15.60;;;15.00;57.80;;;;;;5001340;28;20720;-42
2022/10/11 10:30:12;;;;;;;40.25;15.75;;;14.90;57.70;;;;;;4999985;28;20394;-43
2022/10/11 10:32:46;;;;;;;39.45;15.05;;;14.90;57.50;;;;;;4993822;28;20058;-44
2022/10/11 10:35:25;;;;;;;41.67;16.48;;;14.80;57.70;;;;;;4994144;28;20513;-45
2022/10/11 10:38:03;;;;;;;43.85;15.05;;;14.70;58.00;;;;;;4989211;28;20506;-45
2022/10/11 10:40:38;;;;;;;40.00;15.65;;;14.60;58.40;;;;;;4987771;28;20050;-41
2022/10/11 10:43:06;;;;;;;45.47;15.50;;;14.50;58.50;;;;;;4989818;28;20062;-46
2022/10/11 10:45:42;;;;;;;32.75;14.30;;;14.50;58.40;;;;;;4987320;28;20494;-41
2022/10/11 10:48:23;;;;;;;40.80;14.98;;;14.50;58.70;;;;;;4988130;28;21161;-41
2022/10/11 10:50:57;;;;;;;28.80;11.35;;;14.50;58.90;;;;;;4994347;28;20517;-42
2022/10/11 10:53:32;;;;;;;27.17;10.82;;;14.50;59.00;;;;;;5000941;28;20058;-41
2022/10/11 10:56:06;;;;;;;27.98;10.60;;;14.50;59.00;;;;;;4993542;28;20391;-43
2022/10/11 10:58:48;;;;;;;31.80;11.85;;;14.40;58.80;;;;;;4982658;28;20057;-46
2022/10/11 11:01:21;;;;;;;30.98;11.18;;;14.40;58.90;;;;;;4982138;28;20046;-41
2022/10/11 11:03:57;;;;;;;23.33;9.02;;;14.40;59.10;;;;;;4990326;28;20399;-42
2022/10/11 11:06:31;;;;;;;20.42;7.93;;;14.40;58.70;;;;;;4992390;28;20057;-41
2022/10/11 11:09:11;;;;;;;21.17;7.97;;;14.40;58.80;;;;;;4989757;28;20392;-42
2022/10/11 11:11:49;;;;;;;17.25;7.18;;;14.40;58.50;;;;;;4989004;28;20061;-41
2022/10/11 11:14:27;;;;;;;12.93;5.40;;;14.40;58.40;;;;;;4991814;28;20064;-41
2022/10/11 11:17:01;;;;;;;17.65;6.30;;;14.50;58.50;;;;;;4990149;28;20058;-45
2022/10/11 11:19:42;;;;;;;14.30;5.53;;;14.50;58.50;;;;;;4989216;28;20057;-41
2022/10/11 11:22:19;;;;;;;25.33;5.97;;;14.60;58.60;;;;;;4988581;28;20058;-41
2022/10/11 11:25:00;;;;;;;26.45;6.25;;;14.60;58.50;;;;;;4990636;28;20319;-42
2022/10/11 11:27:41;;;;;;;23.05;5.50;;;14.60;58.40;;;;;;5002627;28;20053;-42
2022/10/11 11:30:12;;;;;;;14.63;4.13;;;14.70;58.70;;;;;;4994102;28;20061;-41
2022/10/11 11:32:51;;;;;;;11.38;4.25;;;14.80;58.40;;;;;;4999396;28;20065;-42
2022/10/11 11:35:27;;;;;;;15.95;2.78;;;14.90;58.30;;;;;;5000211;28;20058;-43
2022/10/11 11:38:00;;;;;;;11.00;2.78;;;14.90;58.00;;;;;;4997049;28;20054;-40
2022/10/11 11:40:34;;;;;;;18.77;3.17;;;15.10;57.70;;;;;;5000038;28;21120;-45
2022/10/11 11:43:06;;;;;;;10.38;2.63;;;15.10;57.50;;;;;;5002253;28;20495;-42
2022/10/11 11:45:42;;;;;;;12.55;3.17;;;15.20;57.30;;;;;;5000592;28;20061;-43
2022/10/11 11:48:15;;;;;;;17.60;3.75;;;15.20;57.10;;;;;;4999424;28;20538;-42
2022/10/11 11:50:46;;;;;;;14.30;3.15;;;15.30;55.70;;;;;;5002450;28;20466;-44
2022/10/11 11:53:17;;;;;;;12.27;2.45;;;15.40;55.50;;;;;;5003483;28;20058;-40
2022/10/11 11:55:53;;;;;;;15.73;2.90;;;15.40;55.40;;;;;;5004155;28;20398;-43
2022/10/11 11:58:34;;;;;;;15.98;3.25;;;15.40;54.80;;;;;;5003957;28;20045;-41
2022/10/11 12:01:06;;;;;;;10.98;2.30;;;15.40;53.10;;;;;;5003262;28;20482;-41
2022/10/11 12:03:39;;;;;;;11.90;2.25;;;15.40;53.60;;;;;;5004476;28;20057;-43
2022/10/11 12:06:19;;;;;;;15.02;2.80;;;15.40;53.40;;;;;;5000086;28;20058;-43
2022/10/11 12:08:48;;;;;;;15.45;2.63;;;15.30;52.90;;;;;;5004388;28;20065;-46
2022/10/11 12:11:24;;;;;;;14.85;3.03;;;15.30;53.40;;;;;;5003521;28;20409;-40
2022/10/11 12:13:52;;;;;;;14.82;2.80;;;15.30;53.20;;;;;;5002478;28;20049;-41
2022/10/11 12:16:21;;;;;;;17.80;2.40;;;15.30;53.50;;;;;;5001144;28;20054;-44
2022/10/11 12:18:51;;;;;;;12.65;2.38;;;15.30;53.60;;;;;;5003570;28;20057;-40
2022/10/11 12:21:32;;;;;;;17.52;2.20;;;15.20;53.40;;;;;;4999687;28;20042;-40
2022/10/11 12:24:00;;;;;;;10.82;2.15;;;15.20;53.50;;;;;;4998578;28;20061;-44
2022/10/11 12:26:36;;;;;;;8.05;1.85;;;15.10;53.90;;;;;;4999905;28;20064;-41
2022/10/11 12:29:20;;;;;;;6.70;1.83;;;15.10;53.30;;;;;;5000745;28;20426;-45
2022/10/11 12:31:49;;;;;;;10.02;1.70;;;15.20;53.80;;;;;;4997772;28;20046;-41
2022/10/11 12:34:20;;;;;;;10.13;1.55;;;15.20;53.90;;;;;;5001689;28;20096;-40
2022/10/11 12:36:49;;;;;;;10.80;2.78;;;15.30;53.70;;;;;;4998176;28;20525;-42
2022/10/11 12:39:47;;;;;;;7.25;1.73;;;15.30;53.00;;;;;;5001471;28;20421;-42
2022/10/11 12:42:25;;;;;;;9.73;2.38;;;15.40;53.40;;;;;;4998445;28;20271;-42
2022/10/11 12:45:32;;;;;;;11.75;2.22;;;15.50;52.00;;;;;;5002216;28;20379;-43
2022/10/11 12:48:16;;;;;;;11.88;2.28;;;15.50;50.60;;;;;;4991697;28;20065;-43
2022/10/11 12:50:53;;;;;;;6.67;1.70;;;15.50;50.70;;;;;;4995171;28;20041;-42
2022/10/11 12:53:35;;;;;;;9.55;1.60;;;15.60;50.80;;;;;;5001853;28;20429;-42